sensor_id;sensor_type;location;lat;lon;timestamp;pressure;altitude;pressure_sealevel;temperature;humidity
64628;BME280;59036;50.960;0.314;2023-02-22T00:01:49;99615.61;;;5.05;100.00
64628;BME280;59036;50.960;0.314;2023-02-22T00:04:16;99622.69;;;5.53;100.00
64628;BME280;59036;50.960;0.314;2023-02-22T00:06:45;99625.75;;;5.09;100.00
64628;BME280;59036;50.960;0.314;2023-02-22T00:09:12;99627.91;;;4.91;100.00
64628;BME280;59036;50.960;0.314;2023-02-22T00:11:44;99625.77;;;4.79;100.00
64628;BME280;59036;50.960;0.314;2023-02-22T00:14:11;99624.10;;;4.57;100.00
64628;BME280;59036;50.960;0.314;2023-02-22T00:16:38;99621.30;;;4.78;100.00
64628;BME280;59036;50.960;0.314;2023-02-22T00:19:06;99624.90;;;4.70;100.00
64628;BME280;59036;50.960;0.314;2023-02-22T00:21:34;99621.90;;;4.40;100.00
64628;BME280;59036;50.960;0.314;2023-02-22T00:24:01;99616.41;;;4.99;100.00
64628;BME280;59036;50.960;0.314;2023-02-22T00:26:32;99607.71;;;5.29;100.00
64628;BME280;59036;50.960;0.314;2023-02-22T00:29:00;99602.41;;;5.43;100.00
64628;BME280;59036;50.960;0.314;2023-02-22T00:31:27;99604.63;;;5.35;100.00
64628;BME280;59036;50.960;0.314;2023-02-22T00:33:54;99607.20;;;4.83;100.00
64628;BME280;59036;50.960;0.314;2023-02-22T00:36:22;99608.33;;;4.73;100.00
64628;BME280;59036;50.960;0.314;2023-02-22T00:38:49;99599.21;;;5.35;100.00
64628;BME280;59036;50.960;0.314;2023-02-22T00:41:17;99597.50;;;5.18;100.00
64628;BME280;59036;50.960;0.314;2023-02-22T00:43:44;99592.81;;;4.53;100.00
64628;BME280;59036;50.960;0.314;2023-02-22T00:46:12;99592.62;;;4.47;100.00
64628;BME280;59036;50.960;0.314;2023-02-22T00:48:39;99590.09;;;4.50;100.00
64628;BME280;59036;50.960;0.314;2023-02-22T00:51:07;99589.56;;;4.66;100.00
64628;BME280;59036;50.960;0.314;2023-02-22T00:53:34;99587.25;;;4.65;100.00
64628;BME280;59036;50.960;0.314;2023-02-22T00:56:01;99581.42;;;4.67;100.00
64628;BME280;59036;50.960;0.314;2023-02-22T00:58:28;99578.70;;;5.00;100.00
64628;BME280;59036;50.960;0.314;2023-02-22T01:00:55;99572.75;;;5.27;100.00
64628;BME280;59036;50.960;0.314;2023-02-22T01:03:23;99566.17;;;5.28;100.00
64628;BME280;59036;50.960;0.314;2023-02-22T01:05:50;99563.84;;;5.14;100.00
64628;BME280;59036;50.960;0.314;2023-02-22T01:08:17;99559.63;;;5.22;100.00
64628;BME280;59036;50.960;0.314;2023-02-22T01:10:44;99557.01;;;5.38;100.00
64628;BME280;59036;50.960;0.314;2023-02-22T01:13:12;99551.92;;;4.99;100.00
64628;BME280;59036;50.960;0.314;2023-02-22T01:15:41;99549.60;;;5.06;100.00
64628;BME280;59036;50.960;0.314;2023-02-22T01:18:09;99548.39;;;5.18;100.00
64628;BME280;59036;50.960;0.314;2023-02-22T01:20:36;99545.55;;;5.19;100.00
64628;BME280;59036;50.960;0.314;2023-02-22T01:23:05;99543.51;;;4.78;100.00
64628;BME280;59036;50.960;0.314;2023-02-22T01:25:34;99536.18;;;5.59;100.00
64628;BME280;59036;50.960;0.314;2023-02-22T01:28:03;99531.87;;;5.88;100.00
64628;BME280;59036;50.960;0.314;2023-02-22T01:30:34;99523.77;;;5.96;100.00
64628;BME280;59036;50.960;0.314;2023-02-22T01:33:05;99516.02;;;6.83;100.00
64628;BME280;59036;50.960;0.314;2023-02-22T01:35:35;99511.55;;;7.61;100.00
64628;BME280;59036;50.960;0.314;2023-02-22T01:38:02;99511.32;;;8.26;100.00
64628;BME280;59036;50.960;0.314;2023-02-22T01:40:32;99507.53;;;7.44;100.00
64628;BME280;59036;50.960;0.314;2023-02-22T01:43:02;99508.89;;;6.61;100.00
64628;BME280;59036;50.960;0.314;2023-02-22T01:46:02;99510.09;;;6.44;100.00
64628;BME280;59036;50.960;0.314;2023-02-22T01:48:34;99512.46;;;5.69;100.00
64628;BME280;59036;50.960;0.314;2023-02-22T01:51:09;99510.16;;;6.04;100.00
64628;BME280;59036;50.960;0.314;2023-02-22T01:53:41;99500.25;;;6.59;100.00
64628;BME280;59036;50.960;0.314;2023-02-22T01:56:10;99504.00;;;5.25;100.00
64628;BME280;59036;50.960;0.314;2023-02-22T01:58:40;99497.15;;;6.74;100.00
64628;BME280;59036;50.960;0.314;2023-02-22T02:01:08;99498.16;;;6.04;100.00
64628;BME280;59036;50.960;0.314;2023-02-22T02:03:38;99493.68;;;6.17;100.00
64628;BME280;59036;50.960;0.314;2023-02-22T02:06:13;99494.87;;;4.68;100.00
64628;BME280;59036;50.960;0.314;2023-02-22T02:08:47;99493.45;;;5.25;100.00
64628;BME280;59036;50.960;0.314;2023-02-22T02:11:18;99492.97;;;5.02;100.00
64628;BME280;59036;50.960;0.314;2023-02-22T02:13:49;99485.98;;;5.19;100.00
64628;BME280;59036;50.960;0.314;2023-02-22T02:16:16;99480.68;;;5.44;100.00
64628;BME280;59036;50.960;0.314;2023-02-22T02:18:43;99477.35;;;6.43;100.00
64628;BME280;59036;50.960;0.314;2023-02-22T02:21:37;99470.70;;;6.21;100.00
64628;BME280;59036;50.960;0.314;2023-02-22T02:24:23;99466.05;;;8.15;100.00
64628;BME280;59036;50.960;0.314;2023-02-22T02:27:07;99453.98;;;8.96;100.00
64628;BME280;59036;50.960;0.314;2023-02-22T02:32:53;99455.36;;;9.30;100.00
64628;BME280;59036;50.960;0.314;2023-02-22T02:35:27;99448.65;;;8.19;100.00
64628;BME280;59036;50.960;0.314;2023-02-22T02:38:01;99442.50;;;8.67;100.00
64628;BME280;59036;50.960;0.314;2023-02-22T02:40:36;99440.44;;;7.27;100.00
64628;BME280;59036;50.960;0.314;2023-02-22T02:43:12;99441.94;;;8.45;100.00
64628;BME280;59036;50.960;0.314;2023-02-22T02:45:58;99436.06;;;8.45;100.00
64628;BME280;59036;50.960;0.314;2023-02-22T02:48:33;99432.17;;;9.14;100.00
64628;BME280;59036;50.960;0.314;2023-02-22T02:51:04;99425.67;;;8.67;100.00
64628;BME280;59036;50.960;0.314;2023-02-22T02:53:35;99421.13;;;10.02;100.00
64628;BME280;59036;50.960;0.314;2023-02-22T02:56:03;99414.45;;;8.91;100.00
64628;BME280;59036;50.960;0.314;2023-02-22T02:58:31;99413.35;;;9.06;100.00
64628;BME280;59036;50.960;0.314;2023-02-22T03:01:00;99405.42;;;10.13;100.00
64628;BME280;59036;50.960;0.314;2023-02-22T03:03:44;99402.97;;;9.10;100.00
64628;BME280;59036;50.960;0.314;2023-02-22T03:06:24;99408.38;;;7.95;100.00
64628;BME280;59036;50.960;0.314;2023-02-22T03:08:58;99413.89;;;7.05;100.00
64628;BME280;59036;50.960;0.314;2023-02-22T03:11:36;99417.85;;;7.28;100.00
64628;BME280;59036;50.960;0.314;2023-02-22T03:14:12;99415.13;;;7.33;100.00
64628;BME280;59036;50.960;0.314;2023-02-22T03:16:45;99416.93;;;7.90;100.00
64628;BME280;59036;50.960;0.314;2023-02-22T03:19:19;99405.52;;;6.99;100.00
64628;BME280;59036;50.960;0.314;2023-02-22T03:21:55;99406.39;;;7.76;100.00
64628;BME280;59036;50.960;0.314;2023-02-22T03:24:26;99406.53;;;7.62;100.00
64628;BME280;59036;50.960;0.314;2023-02-22T03:26:59;99406.11;;;7.49;100.00
64628;BME280;59036;50.960;0.314;2023-02-22T03:29:30;99407.13;;;7.62;100.00
64628;BME280;59036;50.960;0.314;2023-02-22T03:31:58;99408.18;;;8.02;100.00
64628;BME280;59036;50.960;0.314;2023-02-22T03:34:29;99402.16;;;7.96;100.00
64628;BME280;59036;50.960;0.314;2023-02-22T03:37:02;99397.90;;;8.67;100.00
64628;BME280;59036;50.960;0.314;2023-02-22T03:39:32;99395.81;;;9.14;100.00
64628;BME280;59036;50.960;0.314;2023-02-22T03:42:05;99390.00;;;9.35;100.00
64628;BME280;59036;50.960;0.314;2023-02-22T03:44:36;99388.31;;;9.72;100.00
64628;BME280;59036;50.960;0.314;2023-02-22T03:47:08;99388.34;;;8.80;100.00
64628;BME280;59036;50.960;0.314;2023-02-22T03:49:41;99394.37;;;8.23;100.00
64628;BME280;59036;50.960;0.314;2023-02-22T03:52:10;99398.02;;;7.66;100.00
64628;BME280;59036;50.960;0.314;2023-02-22T03:54:38;99396.03;;;7.61;100.00
64628;BME280;59036;50.960;0.314;2023-02-22T03:57:11;99389.63;;;8.21;100.00
64628;BME280;59036;50.960;0.314;2023-02-22T03:59:40;99378.44;;;9.54;100.00
64628;BME280;59036;50.960;0.314;2023-02-22T04:02:07;99382.68;;;8.68;100.00
64628;BME280;59036;50.960;0.314;2023-02-22T04:04:34;99381.63;;;8.58;100.00
64628;BME280;59036;50.960;0.314;2023-02-22T04:07:01;99379.79;;;8.65;100.00
64628;BME280;59036;50.960;0.314;2023-02-22T04:09:28;99375.83;;;9.10;100.00
64628;BME280;59036;50.960;0.314;2023-02-22T04:11:55;99382.81;;;8.11;100.00
64628;BME280;59036;50.960;0.314;2023-02-22T04:14:22;99384.63;;;7.66;100.00
64628;BME280;59036;50.960;0.314;2023-02-22T04:16:49;99389.11;;;6.99;100.00
64628;BME280;59036;50.960;0.314;2023-02-22T04:19:16;99392.29;;;7.34;100.00
64628;BME280;59036;50.960;0.314;2023-02-22T04:21:44;99401.88;;;8.01;100.00
64628;BME280;59036;50.960;0.314;2023-02-22T04:24:11;99400.08;;;8.24;100.00
64628;BME280;59036;50.960;0.314;2023-02-22T04:26:38;99391.57;;;8.67;100.00
64628;BME280;59036;50.960;0.314;2023-02-22T04:29:05;99392.32;;;8.03;100.00
64628;BME280;59036;50.960;0.314;2023-02-22T04:31:33;99381.11;;;9.23;100.00
64628;BME280;59036;50.960;0.314;2023-02-22T04:34:00;99371.01;;;9.64;100.00
64628;BME280;59036;50.960;0.314;2023-02-22T04:36:28;99368.67;;;9.61;100.00
64628;BME280;59036;50.960;0.314;2023-02-22T04:38:56;99367.92;;;9.48;100.00
64628;BME280;59036;50.960;0.314;2023-02-22T04:41:23;99366.24;;;10.18;100.00
64628;BME280;59036;50.960;0.314;2023-02-22T04:43:50;99366.20;;;9.03;100.00
64628;BME280;59036;50.960;0.314;2023-02-22T04:46:18;99361.40;;;10.23;100.00
64628;BME280;59036;50.960;0.314;2023-02-22T04:48:45;99367.33;;;9.41;100.00
64628;BME280;59036;50.960;0.314;2023-02-22T04:51:12;99368.62;;;9.20;100.00
64628;BME280;59036;50.960;0.314;2023-02-22T04:53:39;99364.27;;;8.74;100.00
64628;BME280;59036;50.960;0.314;2023-02-22T04:56:07;99364.55;;;7.98;100.00
64628;BME280;59036;50.960;0.314;2023-02-22T04:58:34;99363.05;;;9.03;100.00
64628;BME280;59036;50.960;0.314;2023-02-22T05:01:02;99370.45;;;8.44;100.00
64628;BME280;59036;50.960;0.314;2023-02-22T05:03:30;99381.61;;;7.00;100.00
64628;BME280;59036;50.960;0.314;2023-02-22T05:05:57;99382.15;;;8.31;100.00
64628;BME280;59036;50.960;0.314;2023-02-22T05:08:25;99373.81;;;8.61;100.00
64628;BME280;59036;50.960;0.314;2023-02-22T05:10:52;99378.25;;;7.88;100.00
64628;BME280;59036;50.960;0.314;2023-02-22T05:13:19;99374.82;;;9.23;100.00
64628;BME280;59036;50.960;0.314;2023-02-22T05:15:46;99381.95;;;8.90;100.00
64628;BME280;59036;50.960;0.314;2023-02-22T05:18:14;99379.27;;;9.78;100.00
64628;BME280;59036;50.960;0.314;2023-02-22T05:20:41;99381.38;;;8.65;100.00
64628;BME280;59036;50.960;0.314;2023-02-22T05:23:09;99381.54;;;6.61;100.00
64628;BME280;59036;50.960;0.314;2023-02-22T05:25:36;99382.99;;;6.96;100.00
64628;BME280;59036;50.960;0.314;2023-02-22T05:28:07;99384.62;;;6.14;100.00
64628;BME280;59036;50.960;0.314;2023-02-22T05:30:35;99389.37;;;5.03;100.00
64628;BME280;59036;50.960;0.314;2023-02-22T05:33:03;99385.59;;;6.32;100.00
64628;BME280;59036;50.960;0.314;2023-02-22T05:35:30;99386.86;;;5.63;100.00
64628;BME280;59036;50.960;0.314;2023-02-22T05:37:57;99384.59;;;5.47;100.00
64628;BME280;59036;50.960;0.314;2023-02-22T05:40:25;99381.69;;;5.97;100.00
64628;BME280;59036;50.960;0.314;2023-02-22T05:42:53;99382.58;;;5.63;100.00
64628;BME280;59036;50.960;0.314;2023-02-22T05:45:22;99378.47;;;5.20;100.00
64628;BME280;59036;50.960;0.314;2023-02-22T05:47:50;99380.69;;;5.88;100.00
64628;BME280;59036;50.960;0.314;2023-02-22T05:50:18;99386.71;;;5.07;100.00
64628;BME280;59036;50.960;0.314;2023-02-22T05:52:46;99382.97;;;6.06;100.00
64628;BME280;59036;50.960;0.314;2023-02-22T05:55:17;99376.89;;;6.07;100.00
64628;BME280;59036;50.960;0.314;2023-02-22T05:57:46;99372.65;;;6.30;100.00
64628;BME280;59036;50.960;0.314;2023-02-22T06:00:17;99372.38;;;6.13;100.00
64628;BME280;59036;50.960;0.314;2023-02-22T06:02:45;99370.17;;;6.17;100.00
64628;BME280;59036;50.960;0.314;2023-02-22T06:05:11;99380.62;;;5.95;100.00
64628;BME280;59036;50.960;0.314;2023-02-22T06:07:39;99380.51;;;6.10;100.00
64628;BME280;59036;50.960;0.314;2023-02-22T06:10:07;99380.59;;;5.48;100.00
64628;BME280;59036;50.960;0.314;2023-02-22T06:12:34;99372.61;;;5.66;100.00
64628;BME280;59036;50.960;0.314;2023-02-22T06:15:01;99369.26;;;5.51;100.00
64628;BME280;59036;50.960;0.314;2023-02-22T06:17:29;99364.18;;;5.87;100.00
64628;BME280;59036;50.960;0.314;2023-02-22T06:19:56;99361.22;;;5.76;100.00
64628;BME280;59036;50.960;0.314;2023-02-22T06:22:24;99364.22;;;5.92;100.00
64628;BME280;59036;50.960;0.314;2023-02-22T06:24:52;99362.73;;;5.89;100.00
64628;BME280;59036;50.960;0.314;2023-02-22T06:27:19;99358.87;;;5.92;100.00
64628;BME280;59036;50.960;0.314;2023-02-22T06:29:46;99368.56;;;4.71;100.00
64628;BME280;59036;50.960;0.314;2023-02-22T06:32:13;99370.35;;;5.53;100.00
64628;BME280;59036;50.960;0.314;2023-02-22T06:34:40;99373.14;;;5.90;100.00
64628;BME280;59036;50.960;0.314;2023-02-22T06:37:07;99371.57;;;5.84;100.00
64628;BME280;59036;50.960;0.314;2023-02-22T06:39:35;99376.47;;;5.34;100.00
64628;BME280;59036;50.960;0.314;2023-02-22T06:42:02;99374.50;;;5.61;100.00
64628;BME280;59036;50.960;0.314;2023-02-22T06:44:29;99379.41;;;5.11;100.00
64628;BME280;59036;50.960;0.314;2023-02-22T06:46:56;99389.71;;;5.29;100.00
64628;BME280;59036;50.960;0.314;2023-02-22T06:49:23;99392.77;;;5.36;100.00
64628;BME280;59036;50.960;0.314;2023-02-22T06:51:52;99405.83;;;4.34;100.00
64628;BME280;59036;50.960;0.314;2023-02-22T06:54:20;99411.45;;;3.94;100.00
64628;BME280;59036;50.960;0.314;2023-02-22T06:56:47;99409.47;;;4.60;100.00
64628;BME280;59036;50.960;0.314;2023-02-22T06:59:15;99404.18;;;6.20;100.00
64628;BME280;59036;50.960;0.314;2023-02-22T07:01:43;99406.36;;;4.90;100.00
64628;BME280;59036;50.960;0.314;2023-02-22T07:04:10;99407.38;;;4.93;100.00
64628;BME280;59036;50.960;0.314;2023-02-22T07:06:38;99406.48;;;5.62;100.00
64628;BME280;59036;50.960;0.314;2023-02-22T07:09:06;99397.27;;;6.13;100.00
64628;BME280;59036;50.960;0.314;2023-02-22T07:11:33;99394.65;;;5.78;100.00
64628;BME280;59036;50.960;0.314;2023-02-22T07:14:00;99394.61;;;5.35;100.00
64628;BME280;59036;50.960;0.314;2023-02-22T07:16:28;99395.69;;;5.85;100.00
64628;BME280;59036;50.960;0.314;2023-02-22T07:18:55;99398.82;;;4.96;100.00
64628;BME280;59036;50.960;0.314;2023-02-22T07:21:22;99407.11;;;5.22;100.00
64628;BME280;59036;50.960;0.314;2023-02-22T07:23:51;99410.18;;;4.96;100.00
64628;BME280;59036;50.960;0.314;2023-02-22T07:26:18;99419.06;;;4.88;100.00
64628;BME280;59036;50.960;0.314;2023-02-22T07:28:46;99418.46;;;5.55;100.00
64628;BME280;59036;50.960;0.314;2023-02-22T07:31:13;99415.09;;;5.47;100.00
64628;BME280;59036;50.960;0.314;2023-02-22T07:33:40;99421.84;;;4.19;100.00
64628;BME280;59036;50.960;0.314;2023-02-22T07:36:08;99413.12;;;6.16;100.00
64628;BME280;59036;50.960;0.314;2023-02-22T07:38:35;99424.62;;;6.68;100.00
64628;BME280;59036;50.960;0.314;2023-02-22T07:41:03;99422.56;;;6.35;100.00
64628;BME280;59036;50.960;0.314;2023-02-22T07:43:30;99422.51;;;6.10;100.00
64628;BME280;59036;50.960;0.314;2023-02-22T07:45:59;99417.86;;;7.17;100.00
64628;BME280;59036;50.960;0.314;2023-02-22T07:48:29;99424.94;;;7.65;100.00
64628;BME280;59036;50.960;0.314;2023-02-22T07:50:57;99427.17;;;7.50;100.00
64628;BME280;59036;50.960;0.314;2023-02-22T07:53:27;99422.87;;;8.54;100.00
64628;BME280;59036;50.960;0.314;2023-02-22T07:55:54;99423.37;;;8.62;100.00
64628;BME280;59036;50.960;0.314;2023-02-22T07:58:27;99426.02;;;7.54;100.00
64628;BME280;59036;50.960;0.314;2023-02-22T08:00:56;99424.34;;;8.45;100.00
64628;BME280;59036;50.960;0.314;2023-02-22T08:03:25;99425.01;;;6.88;100.00
64628;BME280;59036;50.960;0.314;2023-02-22T08:05:55;99428.72;;;7.79;100.00
64628;BME280;59036;50.960;0.314;2023-02-22T08:08:23;99432.02;;;7.87;100.00
64628;BME280;59036;50.960;0.314;2023-02-22T08:10:51;99429.33;;;7.40;100.00
64628;BME280;59036;50.960;0.314;2023-02-22T08:13:19;99429.90;;;7.79;100.00
64628;BME280;59036;50.960;0.314;2023-02-22T08:15:49;99428.60;;;7.69;100.00
64628;BME280;59036;50.960;0.314;2023-02-22T08:18:18;99426.80;;;8.03;100.00
64628;BME280;59036;50.960;0.314;2023-02-22T08:20:48;99429.64;;;7.87;100.00
64628;BME280;59036;50.960;0.314;2023-02-22T08:23:18;99428.94;;;8.56;100.00
64628;BME280;59036;50.960;0.314;2023-02-22T08:25:46;99434.51;;;7.29;100.00
64628;BME280;59036;50.960;0.314;2023-02-22T08:28:15;99432.86;;;8.63;100.00
64628;BME280;59036;50.960;0.314;2023-02-22T08:30:43;99430.35;;;8.21;100.00
64628;BME280;59036;50.960;0.314;2023-02-22T08:33:12;99432.43;;;8.04;100.00
64628;BME280;59036;50.960;0.314;2023-02-22T08:35:39;99436.86;;;7.61;100.00
64628;BME280;59036;50.960;0.314;2023-02-22T08:38:15;99436.03;;;7.90;100.00
64628;BME280;59036;50.960;0.314;2023-02-22T08:40:43;99431.75;;;8.42;100.00
64628;BME280;59036;50.960;0.314;2023-02-22T08:43:11;99432.32;;;8.67;100.00
64628;BME280;59036;50.960;0.314;2023-02-22T08:45:38;99437.61;;;8.07;100.00
64628;BME280;59036;50.960;0.314;2023-02-22T08:48:05;99440.20;;;7.94;100.00
64628;BME280;59036;50.960;0.314;2023-02-22T08:50:33;99440.15;;;7.61;100.00
64628;BME280;59036;50.960;0.314;2023-02-22T08:53:03;99438.59;;;7.61;100.00
64628;BME280;59036;50.960;0.314;2023-02-22T08:55:34;99441.49;;;7.25;100.00
64628;BME280;59036;50.960;0.314;2023-02-22T08:58:03;99438.63;;;7.53;100.00
64628;BME280;59036;50.960;0.314;2023-02-22T09:00:32;99437.08;;;7.85;100.00
64628;BME280;59036;50.960;0.314;2023-02-22T09:02:59;99436.95;;;7.61;100.00
64628;BME280;59036;50.960;0.314;2023-02-22T09:05:27;99442.92;;;6.96;100.00
64628;BME280;59036;50.960;0.314;2023-02-22T09:07:54;99440.99;;;6.43;100.00
64628;BME280;59036;50.960;0.314;2023-02-22T09:10:24;99441.16;;;6.34;100.00
64628;BME280;59036;50.960;0.314;2023-02-22T09:12:52;99443.83;;;6.91;100.00
64628;BME280;59036;50.960;0.314;2023-02-22T09:15:20;99444.55;;;6.87;100.00
64628;BME280;59036;50.960;0.314;2023-02-22T09:17:48;99444.24;;;5.53;100.00
64628;BME280;59036;50.960;0.314;2023-02-22T09:20:17;99448.06;;;5.89;100.00
64628;BME280;59036;50.960;0.314;2023-02-22T09:22:46;99447.90;;;5.92;100.00
64628;BME280;59036;50.960;0.314;2023-02-22T09:25:15;99446.14;;;6.27;100.00
64628;BME280;59036;50.960;0.314;2023-02-22T09:27:42;99449.90;;;6.44;100.00
64628;BME280;59036;50.960;0.314;2023-02-22T09:30:16;99456.63;;;5.86;100.00
64628;BME280;59036;50.960;0.314;2023-02-22T09:32:43;99455.87;;;6.10;100.00
64628;BME280;59036;50.960;0.314;2023-02-22T09:35:11;99452.20;;;6.46;100.00
64628;BME280;59036;50.960;0.314;2023-02-22T09:37:38;99452.74;;;6.52;100.00
64628;BME280;59036;50.960;0.314;2023-02-22T09:40:07;99449.38;;;6.65;100.00
64628;BME280;59036;50.960;0.314;2023-02-22T09:42:40;99450.70;;;6.72;100.00
64628;BME280;59036;50.960;0.314;2023-02-22T09:45:14;99452.63;;;6.06;100.00
64628;BME280;59036;50.960;0.314;2023-02-22T09:47:48;99454.52;;;5.74;100.00
64628;BME280;59036;50.960;0.314;2023-02-22T09:50:20;99456.60;;;6.63;100.00
64628;BME280;59036;50.960;0.314;2023-02-22T09:52:54;99455.56;;;6.93;100.00
64628;BME280;59036;50.960;0.314;2023-02-22T09:55:30;99450.44;;;7.20;100.00
64628;BME280;59036;50.960;0.314;2023-02-22T09:58:02;99442.84;;;7.40;100.00
64628;BME280;59036;50.960;0.314;2023-02-22T10:00:34;99445.55;;;6.86;100.00
64628;BME280;59036;50.960;0.314;2023-02-22T10:03:11;99445.98;;;6.77;100.00
64628;BME280;59036;50.960;0.314;2023-02-22T10:05:50;99451.08;;;6.57;100.00
64628;BME280;59036;50.960;0.314;2023-02-22T10:08:19;99450.35;;;6.23;100.00
64628;BME280;59036;50.960;0.314;2023-02-22T10:10:52;99451.93;;;6.88;100.00
64628;BME280;59036;50.960;0.314;2023-02-22T10:13:27;99451.06;;;6.80;100.00
64628;BME280;59036;50.960;0.314;2023-02-22T10:15:59;99456.53;;;7.02;100.00
64628;BME280;59036;50.960;0.314;2023-02-22T10:19:16;99456.31;;;6.65;100.00
64628;BME280;59036;50.960;0.314;2023-02-22T10:22:02;99458.81;;;5.76;100.00
64628;BME280;59036;50.960;0.314;2023-02-22T10:24:45;99455.39;;;5.91;100.00
64628;BME280;59036;50.960;0.314;2023-02-22T10:27:17;99455.13;;;6.05;100.00
64628;BME280;59036;50.960;0.314;2023-02-22T10:29:49;99451.17;;;6.05;100.00
64628;BME280;59036;50.960;0.314;2023-02-22T10:32:23;99449.81;;;6.01;100.00
64628;BME280;59036;50.960;0.314;2023-02-22T10:34:52;99444.39;;;5.53;100.00
64628;BME280;59036;50.960;0.314;2023-02-22T10:37:24;99446.31;;;5.73;100.00
64628;BME280;59036;50.960;0.314;2023-02-22T10:39:57;99450.90;;;5.48;100.00
64628;BME280;59036;50.960;0.314;2023-02-22T10:42:26;99446.44;;;6.22;100.00
64628;BME280;59036;50.960;0.314;2023-02-22T10:44:55;99444.14;;;6.73;100.00
64628;BME280;59036;50.960;0.314;2023-02-22T10:47:23;99443.31;;;6.61;100.00
64628;BME280;59036;50.960;0.314;2023-02-22T10:49:55;99441.00;;;6.26;100.00
64628;BME280;59036;50.960;0.314;2023-02-22T10:52:25;99434.98;;;6.78;100.00
64628;BME280;59036;50.960;0.314;2023-02-22T10:54:55;99436.65;;;6.66;100.00
64628;BME280;59036;50.960;0.314;2023-02-22T10:57:25;99444.93;;;6.49;100.00
64628;BME280;59036;50.960;0.314;2023-02-22T10:59:53;99451.00;;;5.39;100.00
64628;BME280;59036;50.960;0.314;2023-02-22T11:02:23;99450.94;;;5.70;100.00
64628;BME280;59036;50.960;0.314;2023-02-22T11:04:56;99448.24;;;6.06;100.00
64628;BME280;59036;50.960;0.314;2023-02-22T11:07:25;99455.12;;;5.18;100.00
64628;BME280;59036;50.960;0.314;2023-02-22T11:09:54;99449.53;;;5.45;100.00
64628;BME280;59036;50.960;0.314;2023-02-22T11:12:29;99450.39;;;5.18;100.00
64628;BME280;59036;50.960;0.314;2023-02-22T11:14:57;99446.92;;;6.23;100.00
64628;BME280;59036;50.960;0.314;2023-02-22T11:17:31;99451.47;;;5.62;100.00
64628;BME280;59036;50.960;0.314;2023-02-22T11:19:59;99450.37;;;6.23;100.00
64628;BME280;59036;50.960;0.314;2023-02-22T11:22:30;99454.50;;;6.01;100.00
64628;BME280;59036;50.960;0.314;2023-02-22T11:25:01;99455.35;;;6.56;100.00
64628;BME280;59036;50.960;0.314;2023-02-22T11:27:34;99452.81;;;5.90;100.00
64628;BME280;59036;50.960;0.314;2023-02-22T11:30:25;99449.72;;;6.66;100.00
64628;BME280;59036;50.960;0.314;2023-02-22T11:32:55;99449.92;;;6.82;100.00
64628;BME280;59036;50.960;0.314;2023-02-22T11:35:34;99445.36;;;6.76;100.00
64628;BME280;59036;50.960;0.314;2023-02-22T11:38:11;99446.48;;;7.41;100.00
64628;BME280;59036;50.960;0.314;2023-02-22T11:40:42;99446.73;;;7.12;100.00
64628;BME280;59036;50.960;0.314;2023-02-22T11:43:15;99447.50;;;6.31;100.00
64628;BME280;59036;50.960;0.314;2023-02-22T11:46:01;99449.79;;;6.92;100.00
64628;BME280;59036;50.960;0.314;2023-02-22T11:48:32;99446.79;;;5.69;100.00
64628;BME280;59036;50.960;0.314;2023-02-22T11:51:11;99446.14;;;7.15;100.00
64628;BME280;59036;50.960;0.314;2023-02-22T11:53:51;99441.36;;;7.33;100.00
64628;BME280;59036;50.960;0.314;2023-02-22T11:56:27;99444.48;;;6.71;100.00
64628;BME280;59036;50.960;0.314;2023-02-22T11:59:02;99441.90;;;6.65;100.00
64628;BME280;59036;50.960;0.314;2023-02-22T12:01:38;99437.44;;;6.78;100.00
64628;BME280;59036;50.960;0.314;2023-02-22T12:04:26;99436.56;;;6.46;100.00
64628;BME280;59036;50.960;0.314;2023-02-22T12:07:44;99439.34;;;6.88;100.00
64628;BME280;59036;50.960;0.314;2023-02-22T12:10:23;99434.68;;;7.38;100.00
64628;BME280;59036;50.960;0.314;2023-02-22T12:13:02;99438.70;;;5.36;100.00
64628;BME280;59036;50.960;0.314;2023-02-22T12:15:40;99435.24;;;6.73;100.00
64628;BME280;59036;50.960;0.314;2023-02-22T12:18:15;99432.13;;;6.82;100.00
64628;BME280;59036;50.960;0.314;2023-02-22T12:20:49;99429.91;;;6.23;100.00
64628;BME280;59036;50.960;0.314;2023-02-22T12:23:21;99430.46;;;6.62;100.00
64628;BME280;59036;50.960;0.314;2023-02-22T12:25:57;99426.15;;;6.88;100.00
64628;BME280;59036;50.960;0.314;2023-02-22T12:28:30;99423.09;;;7.72;100.00
64628;BME280;59036;50.960;0.314;2023-02-22T12:31:12;99417.84;;;8.24;100.00
64628;BME280;59036;50.960;0.314;2023-02-22T12:33:48;99419.96;;;7.88;100.00
64628;BME280;59036;50.960;0.314;2023-02-22T12:36:21;99415.60;;;7.60;100.00
64628;BME280;59036;50.960;0.314;2023-02-22T12:38:56;99414.07;;;8.34;100.00
64628;BME280;59036;50.960;0.314;2023-02-22T12:41:30;99416.22;;;7.83;100.00
64628;BME280;59036;50.960;0.314;2023-02-22T12:44:05;99414.17;;;8.21;100.00
64628;BME280;59036;50.960;0.314;2023-02-22T12:46:36;99414.59;;;7.05;100.00
64628;BME280;59036;50.960;0.314;2023-02-22T12:49:11;99414.05;;;7.32;100.00
64628;BME280;59036;50.960;0.314;2023-02-22T12:51:44;99413.60;;;7.13;100.00
64628;BME280;59036;50.960;0.314;2023-02-22T12:54:20;99413.77;;;7.00;100.00
64628;BME280;59036;50.960;0.314;2023-02-22T12:56:55;99414.10;;;7.28;100.00
64628;BME280;59036;50.960;0.314;2023-02-22T12:59:30;99412.02;;;7.32;100.00
64628;BME280;59036;50.960;0.314;2023-02-22T13:02:04;99410.94;;;7.48;100.00
64628;BME280;59036;50.960;0.314;2023-02-22T13:04:37;99410.59;;;8.46;100.00
64628;BME280;59036;50.960;0.314;2023-02-22T13:07:17;99413.16;;;7.67;100.00
64628;BME280;59036;50.960;0.314;2023-02-22T13:09:58;99414.24;;;7.81;100.00
64628;BME280;59036;50.960;0.314;2023-02-22T13:12:37;99413.38;;;8.08;100.00
64628;BME280;59036;50.960;0.314;2023-02-22T13:15:11;99409.21;;;9.55;100.00
64628;BME280;59036;50.960;0.314;2023-02-22T13:17:52;99413.19;;;8.84;100.00
64628;BME280;59036;50.960;0.314;2023-02-22T13:20:26;99416.42;;;9.46;100.00
64628;BME280;59036;50.960;0.314;2023-02-22T13:23:01;99414.66;;;9.57;100.00